createdAt,value
2023-03-22T00:04:24.853Z,1015.40
2023-03-22T00:09:39.707Z,1015.37
2023-03-22T00:14:50.784Z,1015.35
2023-03-22T00:19:58.347Z,1015.31
2023-03-22T00:25:06.061Z,1015.23
2023-03-22T00:30:13.550Z,1015.25
2023-03-22T00:35:20.956Z,1015.23
2023-03-22T00:40:28.339Z,1015.30
2023-03-22T00:45:36.547Z,1015.31
2023-03-22T00:50:46.892Z,1015.20
2023-03-22T00:55:59.507Z,1015.18
2023-03-22T01:01:07.153Z,1015.05
2023-03-22T01:06:14.651Z,1014.92
2023-03-22T01:11:26.950Z,1014.75
2023-03-22T01:16:34.435Z,1014.74
2023-03-22T01:22:03.203Z,1014.81
2023-03-22T01:26:54.782Z,1014.84
2023-03-22T01:32:09.908Z,1014.76
2023-03-22T01:37:15.127Z,1014.79
2023-03-22T01:42:22.391Z,1014.73
2023-03-22T01:47:29.662Z,1014.75
2023-03-22T01:52:37.123Z,1014.80
2023-03-22T01:57:44.460Z,1014.71
2023-03-22T02:02:51.770Z,1014.71
2023-03-22T02:07:59.113Z,1014.76
2023-03-22T02:13:06.461Z,1014.79
2023-03-22T02:18:13.825Z,1014.78
2023-03-22T02:23:21.279Z,1014.73
2023-03-22T02:28:28.578Z,1014.78
2023-03-22T02:33:35.982Z,1014.83
2023-03-22T02:38:43.610Z,1014.83
2023-03-22T02:43:50.947Z,1014.81
2023-03-22T02:48:58.263Z,1014.79
2023-03-22T02:54:06.198Z,1014.91
2023-03-22T02:59:12.935Z,1014.96
2023-03-22T03:04:20.217Z,1014.88
2023-03-22T03:09:27.596Z,1014.86
2023-03-22T03:14:34.925Z,1014.85
2023-03-22T03:19:42.182Z,1014.91
2023-03-22T03:24:49.469Z,1015.05
2023-03-22T03:29:56.632Z,1015.12
2023-03-22T03:35:03.853Z,1015.09
2023-03-22T03:40:11.112Z,1015.08
2023-03-22T03:45:18.271Z,1014.99
2023-03-22T03:50:25.462Z,1014.99
2023-03-22T03:55:32.675Z,1014.99
2023-03-22T04:00:40.217Z,1015.05
2023-03-22T04:05:47.184Z,1015.14
2023-03-22T04:10:54.558Z,1015.13
2023-03-22T04:16:02.126Z,1015.17
2023-03-22T04:21:09.578Z,1015.13
2023-03-22T04:26:17.117Z,1015.10
2023-03-22T04:31:25.894Z,1015.12
2023-03-22T04:36:33.175Z,1015.14
2023-03-22T04:41:40.770Z,1015.12
2023-03-22T04:46:48.211Z,1015.15
2023-03-22T04:51:55.714Z,1015.09
2023-03-22T04:57:03.084Z,1015.12
2023-03-22T05:02:10.634Z,1015.11
2023-03-22T05:07:18.186Z,1015.09
2023-03-22T05:12:25.826Z,1015.12
2023-03-22T05:17:33.114Z,1015.12
2023-03-22T05:22:40.662Z,1015.06
2023-03-22T05:27:47.755Z,1015.13
2023-03-22T05:32:54.904Z,1015.17
2023-03-22T05:38:02.086Z,1015.17
2023-03-22T05:43:09.306Z,1015.21
2023-03-22T05:48:16.544Z,1015.21
2023-03-22T05:53:23.849Z,1015.23
2023-03-22T05:58:31.154Z,1015.22
2023-03-22T06:03:38.496Z,1015.21
2023-03-22T06:08:46.346Z,1015.20
2023-03-22T06:13:53.745Z,1015.24
2023-03-22T06:19:05.838Z,1015.21
2023-03-22T06:24:13.215Z,1015.21
2023-03-22T06:29:20.797Z,1015.17
2023-03-22T06:34:28.148Z,1015.19
2023-03-22T06:39:35.663Z,1015.15
2023-03-22T06:44:42.988Z,1015.24
2023-03-22T06:49:50.265Z,1015.28
2023-03-22T06:54:57.603Z,1015.33
2023-03-22T07:00:05.163Z,1015.35
2023-03-22T07:05:12.362Z,1015.24
2023-03-22T07:10:19.629Z,1015.22
2023-03-22T07:15:26.931Z,1015.21
2023-03-22T07:20:34.211Z,1015.23
2023-03-22T07:25:41.547Z,1015.19
2023-03-22T07:30:48.815Z,1015.15
2023-03-22T07:35:56.278Z,1015.19
2023-03-22T07:41:03.619Z,1015.21
2023-03-22T07:46:11.074Z,1015.23
2023-03-22T07:51:18.262Z,1015.23
2023-03-22T07:56:25.536Z,1015.23
2023-03-22T08:01:32.864Z,1015.27
2023-03-22T08:06:40.086Z,1015.22
2023-03-22T08:11:47.379Z,1015.20
2023-03-22T08:16:54.912Z,1015.18
2023-03-22T08:22:02.126Z,1015.16
2023-03-22T08:27:09.381Z,1015.14
2023-03-22T08:32:16.758Z,1015.15
2023-03-22T08:37:24.035Z,1015.12
2023-03-22T08:42:31.296Z,1015.11
2023-03-22T08:47:38.568Z,1015.10
2023-03-22T08:52:45.797Z,1015.07
2023-03-22T08:57:53.005Z,1015.01
2023-03-22T09:03:00.205Z,1014.91
2023-03-22T09:08:07.399Z,1014.82
2023-03-22T09:13:14.555Z,1014.77
2023-03-22T09:18:21.755Z,1014.72
2023-03-22T09:23:28.952Z,1014.67
2023-03-22T09:28:36.246Z,1014.60
2023-03-22T09:33:43.332Z,1014.52
2023-03-22T09:38:50.527Z,1014.44
2023-03-22T09:43:57.915Z,1014.38
2023-03-22T09:49:05.304Z,1014.36
2023-03-22T09:54:12.538Z,1014.34
2023-03-22T09:59:19.795Z,1014.23
2023-03-22T10:04:27.036Z,1014.25
2023-03-22T10:09:34.174Z,1014.21
2023-03-22T10:14:41.422Z,1014.22
2023-03-22T10:19:48.688Z,1014.22
2023-03-22T10:24:55.831Z,1014.13
2023-03-22T10:30:03.022Z,1014.10
2023-03-22T10:35:10.246Z,1014.02
2023-03-22T10:40:17.407Z,1014.01
2023-03-22T10:45:24.622Z,1013.92
2023-03-22T10:50:31.807Z,1013.93
2023-03-22T10:55:39.377Z,1013.88
2023-03-22T11:00:46.369Z,1013.90
2023-03-22T11:05:53.471Z,1013.84
2023-03-22T11:11:00.865Z,1013.87
2023-03-22T11:16:08.173Z,1013.75
2023-03-22T11:21:15.336Z,1013.70
2023-03-22T11:26:22.499Z,1013.61
2023-03-22T11:31:29.778Z,1013.52
2023-03-22T11:36:37.089Z,1013.53
2023-03-22T11:41:44.444Z,1013.45
2023-03-22T11:46:51.740Z,1013.38
2023-03-22T11:51:59.046Z,1013.28
2023-03-22T11:57:06.353Z,1013.18
2023-03-22T12:02:13.821Z,1013.12
2023-03-22T12:07:20.996Z,1013.03
2023-03-22T12:12:28.132Z,1013.02
2023-03-22T12:17:35.534Z,1013.02
2023-03-22T12:22:42.729Z,1012.97
2023-03-22T12:27:49.991Z,1012.82
2023-03-22T12:32:57.268Z,1012.89
2023-03-22T12:38:04.528Z,1012.85
2023-03-22T12:43:11.748Z,1012.73
2023-03-22T12:48:19.137Z,1012.62
2023-03-22T12:53:26.282Z,1012.57
2023-03-22T12:58:33.398Z,1012.43
2023-03-22T13:03:40.775Z,1012.31
2023-03-22T13:08:47.998Z,1012.28
2023-03-22T13:13:55.200Z,1012.27
2023-03-22T13:19:02.453Z,1012.25
2023-03-22T13:24:09.830Z,1012.15
2023-03-22T13:29:17.026Z,1012.07
2023-03-22T13:34:24.310Z,1012.01
2023-03-22T13:39:31.660Z,1012.02
2023-03-22T13:44:38.789Z,1011.95
2023-03-22T13:49:46.061Z,1011.97
2023-03-22T13:54:53.402Z,1011.90
2023-03-22T14:00:10.343Z,1011.94
2023-03-22T14:05:07.910Z,1011.90
2023-03-22T14:10:15.231Z,1011.92
2023-03-22T14:15:22.555Z,1011.86
2023-03-22T14:20:29.770Z,1011.85
2023-03-22T14:45:50.800Z,1011.78
2023-03-22T14:50:58.111Z,1011.80
2023-03-22T14:56:05.296Z,1011.77
2023-03-22T15:01:12.503Z,1011.75
2023-03-22T15:06:19.650Z,1011.79
2023-03-22T15:11:26.844Z,1011.70
2023-03-22T15:16:34.068Z,1011.65
2023-03-22T15:21:41.281Z,1011.70
2023-03-22T15:26:48.499Z,1011.64
2023-03-22T15:31:55.792Z,1011.65
2023-03-22T15:37:02.871Z,1011.61
2023-03-22T15:42:10.046Z,1011.64
2023-03-22T15:47:17.268Z,1011.58
2023-03-22T15:52:24.441Z,1011.61
2023-03-22T15:57:31.734Z,1011.54
2023-03-22T16:02:39.031Z,1011.63
2023-03-22T16:07:46.302Z,1011.61
2023-03-22T16:12:53.613Z,1011.67
2023-03-22T16:18:00.917Z,1011.63
2023-03-22T16:23:08.205Z,1011.68
2023-03-22T16:28:15.532Z,1011.77
2023-03-22T16:33:22.837Z,1011.76
2023-03-22T16:38:30.106Z,1011.76
2023-03-22T16:43:37.374Z,1011.78
2023-03-22T16:48:44.583Z,1011.82
2023-03-22T16:53:51.762Z,1011.79
2023-03-22T16:58:58.928Z,1011.82
2023-03-22T17:04:06.145Z,1011.80
2023-03-22T17:09:13.309Z,1011.79
2023-03-22T17:14:20.508Z,1011.81
2023-03-22T17:19:27.892Z,1011.85
2023-03-22T17:24:35.025Z,1011.83
2023-03-22T17:29:42.252Z,1011.81
2023-03-22T17:34:49.566Z,1011.81
2023-03-22T17:40:20.765Z,1011.88
2023-03-22T17:45:06.832Z,1011.89
2023-03-22T17:50:11.689Z,1011.94
2023-03-22T17:55:27.750Z,1011.94
2023-03-22T18:00:26.864Z,1012.09
2023-03-22T18:05:34.507Z,1012.16
2023-03-22T18:10:42.372Z,1012.24
2023-03-22T18:15:49.412Z,1012.31
2023-03-22T18:20:57.767Z,1012.40
2023-03-22T18:26:05.141Z,1012.38
2023-03-22T18:31:12.198Z,1012.41
2023-03-22T18:36:19.798Z,1012.38
2023-03-22T18:46:35.441Z,1012.46
2023-03-22T18:52:23.336Z,1012.52
2023-03-22T18:56:52.011Z,1012.51
2023-03-22T19:02:20.624Z,1012.54
2023-03-22T19:07:40.739Z,1012.52
2023-03-22T19:12:30.567Z,1012.55
2023-03-22T19:17:38.285Z,1012.53
2023-03-22T19:22:46.024Z,1012.49
2023-03-22T19:27:54.338Z,1012.49
2023-03-22T19:33:24.302Z,1012.52
2023-03-22T19:38:09.684Z,1012.53
2023-03-22T19:43:17.338Z,1012.58
2023-03-22T19:48:25.174Z,1012.57
2023-03-22T19:58:40.119Z,1012.54
2023-03-22T20:03:47.585Z,1012.54
2023-03-22T20:08:55.512Z,1012.60
2023-03-22T20:14:03.172Z,1012.50
2023-03-22T20:19:10.899Z,1012.47
2023-03-22T20:24:18.524Z,1012.45
2023-03-22T20:29:26.220Z,1012.45
2023-03-22T20:34:33.833Z,1012.55
2023-03-22T20:39:41.260Z,1012.58
2023-03-22T20:44:48.649Z,1012.61
2023-03-22T20:49:56.264Z,1012.61
2023-03-22T20:55:04.511Z,1012.66
2023-03-22T21:00:11.689Z,1012.67
2023-03-22T21:05:19.206Z,1012.70
2023-03-22T21:10:26.635Z,1012.64
2023-03-22T21:15:33.834Z,1012.60
2023-03-22T21:20:41.084Z,1012.58
2023-03-22T21:25:48.269Z,1012.65
2023-03-22T21:30:55.457Z,1012.72
2023-03-22T21:36:02.682Z,1012.70
2023-03-22T21:41:09.923Z,1012.61
2023-03-22T21:46:17.143Z,1012.59
2023-03-22T21:51:24.392Z,1012.54
2023-03-22T21:56:31.617Z,1012.58
2023-03-22T22:01:38.870Z,1012.59
2023-03-22T22:06:46.172Z,1012.52
2023-03-22T22:11:53.452Z,1012.49
2023-03-22T22:17:00.635Z,1012.46
2023-03-22T22:22:07.913Z,1012.41
2023-03-22T22:27:15.184Z,1012.53
2023-03-22T22:32:22.463Z,1012.49
2023-03-22T22:37:29.679Z,1012.49
2023-03-22T22:42:36.947Z,1012.56
2023-03-22T22:47:44.133Z,1012.53
2023-03-22T22:52:51.410Z,1012.48
2023-03-22T22:57:58.613Z,1012.51
2023-03-22T23:03:05.873Z,1012.47
2023-03-22T23:08:13.095Z,1012.47
2023-03-22T23:13:20.373Z,1012.51
2023-03-22T23:18:27.523Z,1012.43
2023-03-22T23:23:34.730Z,1012.51
2023-03-22T23:28:42.017Z,1012.54
2023-03-22T23:33:51.199Z,1012.51
2023-03-22T23:38:58.927Z,1012.36
2023-03-22T23:44:11.248Z,1012.30
2023-03-22T23:49:18.631Z,1012.27
2023-03-22T23:55:11.821Z,1012.26
2023-03-22T23:59:42.690Z,1012.30
